sensor_id;sensor_type;location;lat;lon;timestamp;P1;durP1;ratioP1;P2;durP2;ratioP2
75516;SDS011;64097;52.548;13.406;2023-09-18T06:03:30;6.90;;;6.40;;
75516;SDS011;64097;52.548;13.406;2023-09-18T06:06:00;6.15;;;5.65;;
75516;SDS011;64097;52.548;13.406;2023-09-18T06:08:31;7.90;;;6.28;;
75516;SDS011;64097;52.548;13.406;2023-09-18T06:13:24;6.50;;;6.00;;
75516;SDS011;64097;52.548;13.406;2023-09-18T06:15:50;8.65;;;6.85;;
75516;SDS011;64097;52.548;13.406;2023-09-18T06:18:19;6.75;;;6.25;;
75516;SDS011;64097;52.548;13.406;2023-09-18T06:20:48;6.50;;;5.90;;
75516;SDS011;64097;52.548;13.406;2023-09-18T06:23:14;6.45;;;5.93;;
75516;SDS011;64097;52.548;13.406;2023-09-18T06:25:40;6.95;;;6.25;;
75516;SDS011;64097;52.548;13.406;2023-09-18T06:30:32;5.72;;;5.25;;
75516;SDS011;64097;52.548;13.406;2023-09-18T06:32:59;6.40;;;5.80;;
75516;SDS011;64097;52.548;13.406;2023-09-18T06:37:51;5.95;;;5.55;;
75516;SDS011;64097;52.548;13.406;2023-09-18T06:40:19;5.40;;;5.00;;
75516;SDS011;64097;52.548;13.406;2023-09-18T06:42:45;6.60;;;6.00;;
75516;SDS011;64097;52.548;13.406;2023-09-18T06:45:11;6.03;;;5.53;;
75516;SDS011;64097;52.548;13.406;2023-09-18T06:47:38;6.68;;;6.07;;
75516;SDS011;64097;52.548;13.406;2023-09-18T06:50:05;6.65;;;6.15;;
75516;SDS011;64097;52.548;13.406;2023-09-18T06:52:32;6.90;;;6.40;;
75516;SDS011;64097;52.548;13.406;2023-09-18T06:54:57;6.53;;;6.03;;
75516;SDS011;64097;52.548;13.406;2023-09-18T06:57:24;5.88;;;5.38;;
75516;SDS011;64097;52.548;13.406;2023-09-18T06:59:50;6.30;;;5.70;;
75516;SDS011;64097;52.548;13.406;2023-09-18T07:02:16;5.85;;;5.30;;
75516;SDS011;64097;52.548;13.406;2023-09-18T07:04:42;5.80;;;5.30;;
75516;SDS011;64097;52.548;13.406;2023-09-18T07:09:40;7.07;;;6.35;;
75516;SDS011;64097;52.548;13.406;2023-09-18T07:12:07;6.15;;;5.32;;
75516;SDS011;64097;52.548;13.406;2023-09-18T07:14:34;6.60;;;6.00;;
75516;SDS011;64097;52.548;13.406;2023-09-18T07:17:00;6.95;;;6.25;;
75516;SDS011;64097;52.548;13.406;2023-09-18T07:19:27;6.20;;;5.70;;
75516;SDS011;64097;52.548;13.406;2023-09-18T07:21:53;5.93;;;5.40;;
75516;SDS011;64097;52.548;13.406;2023-09-18T07:24:18;6.53;;;5.93;;
75516;SDS011;64097;52.548;13.406;2023-09-18T07:26:46;6.93;;;6.20;;
75516;SDS011;64097;52.548;13.406;2023-09-18T07:29:13;6.28;;;5.78;;
75516;SDS011;64097;52.548;13.406;2023-09-18T07:31:40;7.00;;;6.40;;
75516;SDS011;64097;52.548;13.406;2023-09-18T07:34:06;5.40;;;5.00;;
75516;SDS011;64097;52.548;13.406;2023-09-18T07:36:32;5.57;;;5.07;;
75516;SDS011;64097;52.548;13.406;2023-09-18T07:38:58;5.10;;;4.70;;
75516;SDS011;64097;52.548;13.406;2023-09-18T07:41:23;5.30;;;4.80;;
75516;SDS011;64097;52.548;13.406;2023-09-18T07:43:50;4.78;;;4.38;;
75516;SDS011;64097;52.548;13.406;2023-09-18T07:46:16;9.85;;;5.20;;
75516;SDS011;64097;52.548;13.406;2023-09-18T07:48:41;5.75;;;5.22;;
75516;SDS011;64097;52.548;13.406;2023-09-18T07:51:11;6.03;;;5.05;;
75516;SDS011;64097;52.548;13.406;2023-09-18T07:53:37;5.60;;;5.00;;
75516;SDS011;64097;52.548;13.406;2023-09-18T07:56:04;7.97;;;4.90;;
75516;SDS011;64097;52.548;13.406;2023-09-18T07:58:30;5.80;;;5.30;;
75516;SDS011;64097;52.548;13.406;2023-09-18T08:00:58;9.90;;;4.78;;
75516;SDS011;64097;52.548;13.406;2023-09-18T08:03:27;7.18;;;5.10;;
75516;SDS011;64097;52.548;13.406;2023-09-18T08:05:54;4.82;;;4.43;;
75516;SDS011;64097;52.548;13.406;2023-09-18T08:08:21;4.43;;;4.13;;
75516;SDS011;64097;52.548;13.406;2023-09-18T08:10:47;5.13;;;4.65;;
75516;SDS011;64097;52.548;13.406;2023-09-18T08:15:39;5.90;;;5.40;;
75516;SDS011;64097;52.548;13.406;2023-09-18T08:18:05;5.25;;;4.85;;
75516;SDS011;64097;52.548;13.406;2023-09-18T08:20:31;5.05;;;4.55;;
75516;SDS011;64097;52.548;13.406;2023-09-18T08:22:58;4.32;;;4.03;;
75516;SDS011;64097;52.548;13.406;2023-09-18T08:25:26;4.75;;;4.40;;
75516;SDS011;64097;52.548;13.406;2023-09-18T08:27:52;5.18;;;4.70;;
75516;SDS011;64097;52.548;13.406;2023-09-18T08:30:18;4.63;;;4.32;;
75516;SDS011;64097;52.548;13.406;2023-09-18T08:32:46;5.00;;;4.60;;
75516;SDS011;64097;52.548;13.406;2023-09-18T08:35:12;4.78;;;4.47;;
75516;SDS011;64097;52.548;13.406;2023-09-18T08:37:40;5.03;;;4.63;;
75516;SDS011;64097;52.548;13.406;2023-09-18T08:40:07;5.22;;;4.85;;
75516;SDS011;64097;52.548;13.406;2023-09-18T08:42:35;5.10;;;4.70;;
75516;SDS011;64097;52.548;13.406;2023-09-18T08:45:05;6.18;;;4.80;;
75516;SDS011;64097;52.548;13.406;2023-09-18T08:50:06;4.72;;;4.32;;
75516;SDS011;64097;52.548;13.406;2023-09-18T08:52:34;4.68;;;4.28;;
75516;SDS011;64097;52.548;13.406;2023-09-18T08:55:00;4.80;;;4.30;;
75516;SDS011;64097;52.548;13.406;2023-09-18T08:57:27;4.25;;;3.90;;
75516;SDS011;64097;52.548;13.406;2023-09-18T08:59:55;4.80;;;4.40;;
75516;SDS011;64097;52.548;13.406;2023-09-18T09:02:22;5.55;;;5.05;;
75516;SDS011;64097;52.548;13.406;2023-09-18T09:04:48;5.30;;;4.88;;
75516;SDS011;64097;52.548;13.406;2023-09-18T09:07:14;5.50;;;5.10;;
75516;SDS011;64097;52.548;13.406;2023-09-18T09:12:06;4.60;;;4.30;;
75516;SDS011;64097;52.548;13.406;2023-09-18T09:14:33;4.10;;;3.85;;
75516;SDS011;64097;52.548;13.406;2023-09-18T09:19:28;5.47;;;4.47;;
75516;SDS011;64097;52.548;13.406;2023-09-18T09:21:55;4.40;;;4.10;;
75516;SDS011;64097;52.548;13.406;2023-09-18T09:24:39;4.38;;;4.07;;
75516;SDS011;64097;52.548;13.406;2023-09-18T09:27:11;4.30;;;4.00;;
75516;SDS011;64097;52.548;13.406;2023-09-18T09:29:39;4.53;;;4.22;;
75516;SDS011;64097;52.548;13.406;2023-09-18T09:32:17;4.35;;;4.03;;
75516;SDS011;64097;52.548;13.406;2023-09-18T09:37:11;4.30;;;4.00;;
75516;SDS011;64097;52.548;13.406;2023-09-18T09:39:48;4.60;;;4.30;;
75516;SDS011;64097;52.548;13.406;2023-09-18T09:44:42;4.78;;;4.38;;
75516;SDS011;64097;52.548;13.406;2023-09-18T09:47:09;4.85;;;4.50;;
75516;SDS011;64097;52.548;13.406;2023-09-18T09:49:46;4.30;;;4.00;;
75516;SDS011;64097;52.548;13.406;2023-09-18T09:52:19;4.50;;;4.20;;
75516;SDS011;64097;52.548;13.406;2023-09-18T09:54:47;3.53;;;3.33;;
75516;SDS011;64097;52.548;13.406;2023-09-18T09:57:13;3.88;;;3.47;;
75516;SDS011;64097;52.548;13.406;2023-09-18T09:59:42;3.70;;;3.50;;
75516;SDS011;64097;52.548;13.406;2023-09-18T10:02:09;4.05;;;3.65;;
75516;SDS011;64097;52.548;13.406;2023-09-18T10:04:39;4.20;;;3.80;;
75516;SDS011;64097;52.548;13.406;2023-09-18T10:07:06;4.10;;;3.80;;
75516;SDS011;64097;52.548;13.406;2023-09-18T10:09:38;3.72;;;3.42;;
75516;SDS011;64097;52.548;13.406;2023-09-18T10:12:10;4.70;;;4.00;;
75516;SDS011;64097;52.548;13.406;2023-09-18T10:14:37;4.10;;;3.80;;
75516;SDS011;64097;52.548;13.406;2023-09-18T10:17:08;3.97;;;3.67;;
75516;SDS011;64097;52.548;13.406;2023-09-18T10:19:45;4.25;;;3.88;;
75516;SDS011;64097;52.548;13.406;2023-09-18T10:22:41;3.92;;;3.63;;
75516;SDS011;64097;52.548;13.406;2023-09-18T10:25:16;3.85;;;3.50;;
75516;SDS011;64097;52.548;13.406;2023-09-18T10:27:45;4.13;;;3.83;;
75516;SDS011;64097;52.548;13.406;2023-09-18T10:30:18;4.78;;;4.07;;
75516;SDS011;64097;52.548;13.406;2023-09-18T10:32:48;6.18;;;4.30;;
75516;SDS011;64097;52.548;13.406;2023-09-18T10:35:14;7.10;;;3.63;;
75516;SDS011;64097;52.548;13.406;2023-09-18T10:37:43;6.68;;;3.97;;
75516;SDS011;64097;52.548;13.406;2023-09-18T10:40:11;4.30;;;3.70;;
75516;SDS011;64097;52.548;13.406;2023-09-18T10:42:38;5.22;;;3.78;;
75516;SDS011;64097;52.548;13.406;2023-09-18T10:45:06;4.18;;;3.63;;
75516;SDS011;64097;52.548;13.406;2023-09-18T10:47:35;4.07;;;3.67;;
75516;SDS011;64097;52.548;13.406;2023-09-18T10:50:06;6.38;;;3.85;;
75516;SDS011;64097;52.548;13.406;2023-09-18T10:52:34;6.03;;;3.60;;
75516;SDS011;64097;52.548;13.406;2023-09-18T10:55:03;3.90;;;3.42;;
75516;SDS011;64097;52.548;13.406;2023-09-18T10:57:32;8.90;;;4.47;;
75516;SDS011;64097;52.548;13.406;2023-09-18T11:00:03;4.10;;;3.70;;
75516;SDS011;64097;52.548;13.406;2023-09-18T11:02:40;4.22;;;3.75;;
75516;SDS011;64097;52.548;13.406;2023-09-18T11:07:31;4.78;;;3.67;;
75516;SDS011;64097;52.548;13.406;2023-09-18T11:09:58;9.30;;;3.63;;
75516;SDS011;64097;52.548;13.406;2023-09-18T11:12:41;3.83;;;3.30;;
75516;SDS011;64097;52.548;13.406;2023-09-18T11:15:10;4.05;;;3.28;;
75516;SDS011;64097;52.548;13.406;2023-09-18T11:17:58;6.97;;;3.85;;
75516;SDS011;64097;52.548;13.406;2023-09-18T11:20:28;5.28;;;3.50;;
75516;SDS011;64097;52.548;13.406;2023-09-18T11:25:39;3.50;;;3.30;;
75516;SDS011;64097;52.548;13.406;2023-09-18T11:28:25;7.40;;;3.88;;
75516;SDS011;64097;52.548;13.406;2023-09-18T11:30:55;4.38;;;3.50;;
75516;SDS011;64097;52.548;13.406;2023-09-18T11:36:05;3.78;;;3.47;;
75516;SDS011;64097;52.548;13.406;2023-09-18T11:38:52;4.10;;;3.78;;
75516;SDS011;64097;52.548;13.406;2023-09-18T11:46:39;6.20;;;3.72;;
75516;SDS011;64097;52.548;13.406;2023-09-18T11:49:08;4.00;;;3.70;;
75516;SDS011;64097;52.548;13.406;2023-09-18T11:51:36;3.75;;;3.45;;
75516;SDS011;64097;52.548;13.406;2023-09-18T11:54:02;4.10;;;3.80;;
75516;SDS011;64097;52.548;13.406;2023-09-18T11:56:31;3.90;;;3.60;;
75516;SDS011;64097;52.548;13.406;2023-09-18T11:58:57;5.38;;;3.63;;
75516;SDS011;64097;52.548;13.406;2023-09-18T12:01:24;4.07;;;3.58;;
75516;SDS011;64097;52.548;13.406;2023-09-18T12:03:55;6.15;;;3.40;;
75516;SDS011;64097;52.548;13.406;2023-09-18T12:06:26;5.22;;;3.63;;
75516;SDS011;64097;52.548;13.406;2023-09-18T12:08:52;6.63;;;4.00;;
75516;SDS011;64097;52.548;13.406;2023-09-18T12:11:18;6.82;;;4.15;;
75516;SDS011;64097;52.548;13.406;2023-09-18T12:13:46;4.53;;;3.58;;
75516;SDS011;64097;52.548;13.406;2023-09-18T12:18:50;6.95;;;4.07;;
75516;SDS011;64097;52.548;13.406;2023-09-18T12:21:16;4.82;;;3.50;;
75516;SDS011;64097;52.548;13.406;2023-09-18T12:26:13;4.18;;;3.78;;
75516;SDS011;64097;52.548;13.406;2023-09-18T12:28:41;7.15;;;4.20;;
75516;SDS011;64097;52.548;13.406;2023-09-18T12:31:13;4.57;;;3.42;;
75516;SDS011;64097;52.548;13.406;2023-09-18T12:33:40;4.10;;;3.70;;
75516;SDS011;64097;52.548;13.406;2023-09-18T12:36:09;5.10;;;3.35;;
75516;SDS011;64097;52.548;13.406;2023-09-18T12:38:35;4.70;;;3.90;;
75516;SDS011;64097;52.548;13.406;2023-09-18T12:41:02;6.55;;;3.80;;
75516;SDS011;64097;52.548;13.406;2023-09-18T12:43:36;4.97;;;3.40;;
75516;SDS011;64097;52.548;13.406;2023-09-18T12:46:04;7.05;;;3.88;;
75516;SDS011;64097;52.548;13.406;2023-09-18T12:48:30;4.38;;;3.83;;
75516;SDS011;64097;52.548;13.406;2023-09-18T12:51:02;3.70;;;3.25;;
75516;SDS011;64097;52.548;13.406;2023-09-18T12:53:31;3.95;;;3.55;;
75516;SDS011;64097;52.548;13.406;2023-09-18T12:56:12;7.38;;;4.20;;
75516;SDS011;64097;52.548;13.406;2023-09-18T12:58:39;4.20;;;3.80;;
75516;SDS011;64097;52.548;13.406;2023-09-18T13:01:09;6.45;;;3.80;;
75516;SDS011;64097;52.548;13.406;2023-09-18T13:03:44;8.13;;;3.40;;
75516;SDS011;64097;52.548;13.406;2023-09-18T13:06:12;5.00;;;3.58;;
75516;SDS011;64097;52.548;13.406;2023-09-18T13:08:44;10.55;;;3.70;;
75516;SDS011;64097;52.548;13.406;2023-09-18T13:11:14;8.10;;;4.00;;
75516;SDS011;64097;52.548;13.406;2023-09-18T13:13:41;6.95;;;3.50;;
75516;SDS011;64097;52.548;13.406;2023-09-18T13:16:09;5.63;;;3.45;;
75516;SDS011;64097;52.548;13.406;2023-09-18T13:18:36;7.63;;;3.63;;
75516;SDS011;64097;52.548;13.406;2023-09-18T13:21:12;3.55;;;3.25;;
75516;SDS011;64097;52.548;13.406;2023-09-18T13:26:05;3.78;;;3.45;;
75516;SDS011;64097;52.548;13.406;2023-09-18T13:28:33;3.30;;;3.10;;
75516;SDS011;64097;52.548;13.406;2023-09-18T13:31:01;4.20;;;3.40;;
75516;SDS011;64097;52.548;13.406;2023-09-18T13:33:33;4.72;;;3.50;;
75516;SDS011;64097;52.548;13.406;2023-09-18T13:36:03;3.35;;;3.05;;
75516;SDS011;64097;52.548;13.406;2023-09-18T13:38:29;3.35;;;3.05;;
75516;SDS011;64097;52.548;13.406;2023-09-18T13:40:55;6.95;;;3.20;;
75516;SDS011;64097;52.548;13.406;2023-09-18T13:43:21;4.70;;;3.20;;
75516;SDS011;64097;52.548;13.406;2023-09-18T13:45:47;3.58;;;3.00;;
75516;SDS011;64097;52.548;13.406;2023-09-18T13:48:17;5.43;;;3.47;;
75516;SDS011;64097;52.548;13.406;2023-09-18T13:50:42;3.53;;;3.22;;
75516;SDS011;64097;52.548;13.406;2023-09-18T13:53:09;3.75;;;3.25;;
75516;SDS011;64097;52.548;13.406;2023-09-18T13:55:34;4.40;;;3.85;;
75516;SDS011;64097;52.548;13.406;2023-09-18T13:58:01;4.13;;;3.72;;
